createdAt,value
2018-07-22T00:01:11.774Z,15.83
2018-07-22T00:03:40.728Z,15.80
2018-07-22T00:06:09.788Z,16.60
2018-07-22T00:08:38.851Z,15.93
2018-07-22T00:11:07.904Z,16.43
2018-07-22T00:13:36.751Z,15.90
2018-07-22T00:16:06.336Z,16.27
2018-07-22T00:18:35.420Z,16.73
2018-07-22T00:21:04.489Z,17.10
2018-07-22T00:23:33.569Z,16.60
2018-07-22T00:26:02.628Z,17.37
2018-07-22T00:28:31.709Z,17.77
2018-07-22T00:31:00.772Z,18.87
2018-07-22T00:33:29.959Z,18.30
2018-07-22T00:35:59.030Z,18.40
2018-07-22T00:38:28.112Z,18.20
2018-07-22T00:40:57.179Z,18.53
2018-07-22T00:43:26.012Z,18.50
2018-07-22T00:45:54.938Z,19.00
2018-07-22T00:48:24.016Z,19.17
2018-07-22T00:50:53.080Z,20.23
2018-07-22T00:53:22.172Z,19.27
2018-07-22T00:55:51.234Z,19.47
2018-07-22T00:58:20.282Z,20.07
2018-07-22T01:00:49.366Z,21.67
2018-07-22T01:03:18.418Z,20.80
2018-07-22T01:05:47.597Z,20.67
2018-07-22T01:08:16.668Z,20.10
2018-07-22T01:10:45.765Z,21.43
2018-07-22T01:13:14.831Z,21.33
2018-07-22T01:15:43.903Z,21.40
2018-07-22T01:18:12.954Z,21.87
2018-07-22T01:20:42.028Z,21.40
2018-07-22T01:23:11.107Z,22.33
2018-07-22T01:25:39.943Z,22.60
2018-07-22T01:28:08.894Z,21.77
2018-07-22T01:30:37.972Z,22.67
2018-07-22T01:33:07.029Z,24.73
2018-07-22T01:35:36.104Z,25.07
2018-07-22T01:38:05.155Z,25.17
2018-07-22T01:40:34.224Z,24.90
2018-07-22T01:43:03.284Z,25.20
2018-07-22T01:45:32.351Z,26.13
2018-07-22T01:48:01.522Z,27.13
2018-07-22T01:50:30.600Z,26.23
2018-07-22T01:52:59.656Z,28.23
2018-07-22T01:55:28.728Z,27.97
2018-07-22T01:57:58.827Z,27.33
2018-07-22T02:00:27.912Z,26.03
2018-07-22T02:02:59.554Z,25.63
2018-07-22T02:05:29.392Z,27.70
2018-07-22T02:07:58.563Z,27.73
2018-07-22T02:10:27.643Z,27.87
2018-07-22T02:12:56.859Z,28.50
2018-07-22T02:15:25.948Z,28.87
2018-07-22T02:17:55.014Z,26.90
2018-07-22T02:20:23.844Z,27.83
2018-07-22T02:22:52.784Z,28.50
2018-07-22T02:25:21.863Z,28.80
2018-07-22T02:27:50.930Z,28.33
2018-07-22T02:30:20.020Z,27.10
2018-07-22T02:32:49.088Z,27.10
2018-07-22T02:35:18.514Z,28.53
2018-07-22T02:37:47.476Z,27.87
2018-07-22T02:40:16.290Z,27.77
2018-07-22T02:42:44.991Z,28.23
2018-07-22T02:45:13.936Z,28.67
2018-07-22T02:47:43.116Z,28.33
2018-07-22T02:50:12.185Z,28.60
2018-07-22T02:52:41.281Z,30.47
2018-07-22T02:55:10.351Z,29.03
2018-07-22T02:57:39.502Z,28.50
2018-07-22T03:00:08.572Z,29.13
2018-07-22T03:02:37.664Z,29.37
2018-07-22T03:05:06.724Z,29.47
2018-07-22T03:07:35.585Z,30.33
2018-07-22T03:10:04.564Z,28.37
2018-07-22T03:12:33.676Z,28.70
2018-07-22T03:15:02.735Z,28.40
2018-07-22T03:17:31.823Z,29.17
2018-07-22T03:20:00.983Z,29.57
2018-07-22T03:22:30.058Z,30.80
2018-07-22T03:24:59.122Z,29.23
2018-07-22T03:27:28.353Z,30.00
2018-07-22T03:29:57.411Z,28.67
2018-07-22T03:32:26.500Z,29.77
2018-07-22T03:34:55.564Z,30.87
2018-07-22T03:37:24.643Z,30.10
2018-07-22T03:39:53.712Z,30.83
2018-07-22T03:42:22.812Z,32.20
2018-07-22T03:44:51.866Z,30.13
2018-07-22T03:47:20.722Z,31.60
2018-07-22T03:49:49.656Z,32.47
2018-07-22T03:52:18.744Z,32.37
2018-07-22T03:54:48.450Z,32.20
2018-07-22T03:57:17.606Z,31.23
2018-07-22T03:59:46.659Z,32.03
2018-07-22T04:02:15.764Z,32.07
2018-07-22T04:04:44.828Z,31.67
2018-07-22T04:07:13.883Z,31.10
2018-07-22T04:09:42.964Z,31.20
2018-07-22T04:12:12.057Z,30.53
2018-07-22T04:14:41.151Z,31.20
2018-07-22T04:17:10.212Z,30.77
2018-07-22T04:19:39.030Z,31.17
2018-07-22T04:22:07.742Z,32.57
2018-07-22T04:24:36.696Z,31.03
2018-07-22T04:27:05.507Z,30.43
2018-07-22T04:29:34.463Z,30.80
2018-07-22T04:32:03.565Z,30.10
2018-07-22T04:34:32.390Z,29.20
2018-07-22T04:37:01.340Z,28.80
2018-07-22T04:39:30.412Z,27.10
2018-07-22T04:41:59.470Z,25.10
2018-07-22T04:44:28.700Z,29.13
2018-07-22T04:46:57.763Z,28.23
2018-07-22T04:49:26.848Z,27.87
2018-07-22T04:51:55.916Z,28.63
2018-07-22T04:54:24.991Z,28.27
2018-07-22T04:56:54.063Z,28.67
2018-07-22T04:59:23.138Z,26.67
2018-07-22T05:01:52.207Z,25.53
2018-07-22T05:04:21.031Z,27.03
2018-07-22T05:06:49.968Z,26.67
2018-07-22T05:09:19.051Z,26.23
2018-07-22T05:11:48.148Z,26.67
2018-07-22T05:14:17.231Z,25.53
2018-07-22T05:16:46.297Z,25.60
2018-07-22T05:19:16.091Z,25.00
2018-07-22T05:21:44.964Z,24.93
2018-07-22T05:24:13.918Z,25.60
2018-07-22T05:26:42.992Z,25.50
2018-07-22T05:29:12.080Z,22.67
2018-07-22T05:31:41.135Z,22.67
2018-07-22T05:34:10.218Z,21.53
2018-07-22T05:36:39.283Z,19.47
2018-07-22T05:39:10.259Z,18.20
2018-07-22T05:41:39.539Z,19.67
2018-07-22T05:44:08.653Z,18.63
2018-07-22T05:46:37.736Z,17.97
2018-07-22T05:49:06.839Z,17.93
2018-07-22T05:51:35.931Z,19.10
2018-07-22T05:54:05.071Z,16.67
2018-07-22T05:56:34.103Z,17.17
2018-07-22T05:59:03.204Z,16.27
2018-07-22T06:01:32.296Z,16.93
2018-07-22T06:04:01.355Z,16.67
2018-07-22T06:06:30.439Z,16.90
2018-07-22T06:08:59.527Z,17.90
2018-07-22T06:11:28.402Z,17.37
2018-07-22T06:13:57.334Z,16.20
2018-07-22T06:16:26.162Z,15.73
2018-07-22T06:18:55.103Z,15.10
2018-07-22T06:21:24.193Z,14.80
2018-07-22T06:23:53.264Z,13.47
2018-07-22T06:26:22.343Z,14.10
2018-07-22T06:28:51.403Z,13.37
2018-07-22T06:31:20.241Z,13.00
2018-07-22T06:33:49.184Z,11.97
2018-07-22T06:36:18.259Z,10.87
2018-07-22T06:38:47.335Z,11.17
2018-07-22T06:41:16.535Z,10.63
2018-07-22T06:43:45.295Z,11.10
2018-07-22T06:46:14.321Z,11.57
2018-07-22T06:48:43.391Z,11.70
2018-07-22T06:51:12.470Z,10.83
2018-07-22T06:53:41.592Z,11.03
2018-07-22T06:56:10.647Z,10.60
2018-07-22T06:58:39.718Z,11.37
2018-07-22T07:01:08.799Z,9.63
2018-07-22T07:03:37.868Z,10.97
2018-07-22T07:06:06.958Z,10.90
2018-07-22T07:08:36.063Z,10.57
2018-07-22T07:11:05.326Z,10.60
2018-07-22T07:13:34.378Z,10.70
2018-07-22T07:16:03.570Z,11.37
2018-07-22T07:18:32.660Z,11.17
2018-07-22T07:21:01.719Z,11.33
2018-07-22T07:23:30.931Z,11.20
2018-07-22T07:25:59.863Z,11.40
2018-07-22T07:28:28.939Z,11.30
2018-07-22T07:30:58.004Z,10.57
2018-07-22T07:33:26.860Z,11.37
2018-07-22T07:35:56.115Z,10.77
2018-07-22T07:38:25.190Z,10.50
2018-07-22T07:40:54.004Z,10.97
2018-07-22T07:43:22.698Z,11.10
2018-07-22T07:45:51.635Z,11.00
2018-07-22T07:48:20.722Z,10.70
2018-07-22T07:50:49.794Z,10.30
2018-07-22T07:53:18.937Z,10.77
2018-07-22T07:55:48.007Z,11.13
2018-07-22T07:58:17.084Z,10.40
2018-07-22T08:00:46.143Z,10.63
2018-07-22T08:03:15.471Z,9.60
2018-07-22T08:05:44.470Z,10.00
2018-07-22T08:08:13.428Z,8.80
2018-07-22T08:10:42.850Z,8.60
2018-07-22T08:13:11.815Z,8.60
2018-07-22T08:15:40.863Z,7.63
2018-07-22T08:18:10.075Z,7.97
2018-07-22T08:20:39.132Z,8.33
2018-07-22T08:23:08.261Z,8.10
2018-07-22T08:25:37.314Z,7.70
2018-07-22T08:28:06.139Z,9.17
2018-07-22T08:30:35.100Z,8.70
2018-07-22T08:33:04.172Z,9.27
2018-07-22T08:35:33.232Z,9.47
2018-07-22T08:38:02.312Z,10.20
2018-07-22T08:43:28.979Z,10.23
2018-07-22T08:45:58.036Z,10.20
2018-07-22T08:48:26.858Z,9.77
2018-07-22T08:50:55.527Z,9.47
2018-07-22T08:53:24.480Z,10.00
2018-07-22T08:55:53.540Z,10.53
2018-07-22T08:58:22.612Z,9.73
2018-07-22T09:00:51.672Z,10.73
2018-07-22T09:03:20.752Z,10.67
2018-07-22T09:05:49.820Z,10.80
2018-07-22T09:08:18.979Z,11.37
2018-07-22T09:10:48.000Z,10.97
2018-07-22T09:13:17.076Z,11.00
2018-07-22T09:15:46.602Z,11.93
2018-07-22T09:18:15.599Z,10.83
2018-07-22T09:20:44.295Z,11.27
2018-07-22T09:23:12.979Z,11.87
2018-07-22T09:25:41.931Z,11.80
2018-07-22T09:28:10.999Z,12.13
2018-07-22T09:30:40.071Z,11.67
2018-07-22T09:33:09.127Z,12.20
2018-07-22T09:35:37.948Z,10.97
2018-07-22T09:38:06.775Z,11.50
2018-07-22T09:40:35.719Z,11.57
2018-07-22T09:43:04.792Z,11.43
2018-07-22T09:45:33.859Z,11.03
2018-07-22T09:48:02.966Z,12.10
2018-07-22T09:50:32.004Z,11.77
2018-07-22T09:53:00.803Z,11.30
2018-07-22T09:55:29.498Z,10.90
2018-07-22T09:57:58.419Z,11.20
2018-07-22T10:00:32.843Z,11.97
2018-07-22T10:03:01.892Z,12.77
2018-07-22T10:05:31.132Z,13.13
2018-07-22T10:08:00.180Z,13.40
2018-07-22T10:10:29.028Z,13.20
2018-07-22T10:12:57.980Z,13.67
2018-07-22T10:15:27.044Z,13.07
2018-07-22T10:17:55.882Z,13.67
2018-07-22T10:20:24.841Z,12.77
2018-07-22T10:22:53.647Z,12.50
2018-07-22T10:25:23.049Z,13.03
2018-07-22T10:27:52.405Z,13.60
2018-07-22T10:30:21.472Z,13.50
2018-07-22T10:32:50.524Z,13.53
2018-07-22T10:35:19.604Z,13.60
2018-07-22T10:37:48.531Z,12.50
2018-07-22T10:40:18.514Z,13.00
2018-07-22T10:42:47.579Z,13.10
2018-07-22T10:45:16.629Z,13.67
2018-07-22T10:47:45.703Z,14.00
2018-07-22T10:50:14.751Z,14.80
2018-07-22T10:52:43.819Z,15.07
2018-07-22T10:55:12.618Z,14.70
2018-07-22T10:57:41.319Z,14.07
2018-07-22T11:00:10.299Z,14.33
2018-07-22T11:02:39.400Z,14.00
2018-07-22T11:05:09.156Z,13.73
2018-07-22T11:07:38.219Z,13.37
2018-07-22T11:10:07.623Z,13.83
2018-07-22T11:12:36.716Z,14.93
2018-07-22T11:15:06.519Z,13.93
2018-07-22T11:17:35.603Z,15.80
2018-07-22T11:20:04.715Z,16.13
2018-07-22T11:22:33.779Z,16.17
2018-07-22T11:25:02.836Z,16.17
2018-07-22T11:27:31.914Z,15.33
2018-07-22T11:30:00.973Z,16.13
2018-07-22T11:32:29.800Z,15.37
2018-07-22T11:34:58.733Z,15.57
2018-07-22T11:37:27.807Z,16.33
2018-07-22T11:39:56.860Z,14.50
2018-07-22T11:42:25.935Z,14.83
2018-07-22T11:44:54.755Z,14.80
2018-07-22T11:47:23.699Z,13.07
2018-07-22T11:49:52.759Z,12.83
2018-07-22T11:52:21.831Z,13.90
2018-07-22T11:54:50.924Z,13.83
2018-07-22T11:57:19.782Z,14.27
2018-07-22T11:59:48.704Z,14.07
2018-07-22T12:02:18.609Z,14.77
2018-07-22T12:04:47.672Z,14.27
2018-07-22T12:07:16.778Z,14.57
2018-07-22T12:09:45.827Z,13.40
2018-07-22T12:12:14.947Z,13.40
2018-07-22T12:14:44.005Z,14.60
2018-07-22T12:17:12.811Z,13.70
2018-07-22T12:19:41.547Z,13.63
2018-07-22T12:22:10.475Z,13.50
2018-07-22T12:24:39.298Z,13.83
2018-07-22T12:27:08.228Z,13.37
2018-07-22T12:29:37.312Z,13.30
2018-07-22T12:32:06.392Z,13.13
2018-07-22T12:34:35.477Z,13.37
2018-07-22T12:37:04.539Z,13.03
2018-07-22T12:39:33.354Z,12.87
2018-07-22T12:42:02.034Z,12.47
2018-07-22T12:44:30.731Z,12.10
2018-07-22T12:46:59.459Z,12.53
2018-07-22T12:49:28.403Z,13.03
2018-07-22T12:51:57.455Z,12.80
2018-07-22T12:54:26.528Z,11.87
2018-07-22T12:56:55.588Z,12.00
2018-07-22T12:59:24.663Z,11.10
2018-07-22T13:01:53.491Z,11.30
2018-07-22T13:04:22.452Z,10.30
2018-07-22T13:06:51.253Z,8.83
2018-07-22T13:09:20.284Z,7.03
2018-07-22T13:11:49.348Z,7.00
2018-07-22T13:14:18.439Z,7.43
2018-07-22T13:16:47.767Z,8.30
2018-07-22T13:19:16.827Z,7.83
2018-07-22T13:21:45.619Z,7.73
2018-07-22T13:24:14.564Z,7.57
2018-07-22T13:26:43.615Z,7.63
2018-07-22T13:29:12.436Z,8.30
2018-07-22T13:31:41.364Z,7.77
2018-07-22T13:34:10.431Z,7.97
2018-07-22T13:36:39.499Z,7.60
2018-07-22T13:39:10.392Z,7.47
2018-07-22T13:41:40.055Z,8.00
2018-07-22T13:44:09.259Z,8.03
2018-07-22T13:46:38.615Z,7.42
2018-07-22T13:49:07.683Z,7.33
2018-07-22T13:51:36.754Z,8.00
2018-07-22T13:54:05.816Z,7.90
2018-07-22T13:56:34.628Z,7.40
2018-07-22T13:59:03.326Z,7.78
2018-07-22T14:01:32.015Z,7.78
2018-07-22T14:04:00.964Z,8.28
2018-07-22T14:06:29.771Z,7.97
2018-07-22T14:08:58.695Z,8.60
2018-07-22T14:11:27.764Z,8.13
2018-07-22T14:13:56.586Z,8.03
2018-07-22T14:16:25.524Z,7.50
2018-07-22T14:18:54.319Z,7.60
2018-07-22T14:21:23.391Z,7.15
2018-07-22T14:23:52.430Z,6.62
2018-07-22T14:26:21.488Z,6.37
2018-07-22T14:28:50.543Z,6.67
2018-07-22T14:31:19.603Z,6.53
2018-07-22T14:33:48.395Z,6.40
2018-07-22T14:36:17.082Z,6.85
2018-07-22T14:38:46.316Z,6.50
2018-07-22T14:41:15.641Z,6.62
2018-07-22T14:43:44.751Z,6.65
2018-07-22T14:46:13.819Z,6.72
2018-07-22T14:48:42.863Z,6.10
2018-07-22T14:51:11.935Z,6.50
2018-07-22T14:53:40.994Z,6.58
2018-07-22T14:56:10.084Z,5.90
2018-07-22T14:58:39.127Z,6.33
2018-07-22T15:01:11.180Z,6.03
2018-07-22T15:03:41.052Z,5.60
2018-07-22T15:06:10.116Z,5.95
2018-07-22T15:08:39.182Z,5.72
2018-07-22T15:11:08.248Z,6.00
2018-07-22T15:13:37.491Z,5.85
2018-07-22T15:16:07.164Z,5.78
2018-07-22T15:18:36.483Z,5.22
2018-07-22T15:21:05.667Z,6.00
2018-07-22T15:23:34.902Z,5.85
2018-07-22T15:26:04.371Z,5.70
2018-07-22T15:28:33.463Z,5.85
2018-07-22T15:31:02.564Z,5.92
2018-07-22T15:33:31.627Z,5.65
2018-07-22T15:36:00.427Z,5.85
2018-07-22T15:38:29.373Z,6.83
2018-07-22T15:40:58.419Z,6.60
2018-07-22T15:43:27.488Z,7.08
2018-07-22T15:45:56.536Z,7.00
2018-07-22T15:48:25.598Z,6.85
2018-07-22T15:50:54.431Z,6.77
2018-07-22T15:53:23.372Z,6.93
2018-07-22T15:55:52.245Z,6.67
2018-07-22T15:58:20.882Z,6.30
2018-07-22T16:00:49.555Z,6.13
2018-07-22T16:03:18.296Z,6.53
2018-07-22T16:05:47.224Z,6.10
2018-07-22T16:08:16.035Z,5.87
2018-07-22T16:10:44.959Z,5.80
2018-07-22T16:13:14.044Z,5.67
2018-07-22T16:15:43.083Z,5.70
2018-07-22T16:18:12.182Z,5.73
2018-07-22T16:20:41.258Z,5.97
2018-07-22T16:23:10.359Z,5.63
2018-07-22T16:25:39.414Z,5.83
2018-07-22T16:28:08.487Z,5.60
2018-07-22T16:30:37.275Z,6.20
2018-07-22T16:33:06.203Z,6.23
2018-07-22T16:35:35.604Z,6.50
2018-07-22T16:38:04.915Z,7.10
2018-07-22T16:40:34.033Z,6.17
2018-07-22T16:43:03.112Z,6.50
2018-07-22T16:45:32.155Z,5.93
2018-07-22T16:48:00.991Z,6.53
2018-07-22T16:50:29.926Z,9.43
2018-07-22T16:52:58.960Z,9.80
2018-07-22T16:55:28.031Z,11.00
2018-07-22T16:57:56.867Z,15.13
2018-07-22T17:00:25.807Z,22.13
2018-07-22T17:02:54.863Z,32.60
2018-07-22T17:05:23.820Z,25.33
2018-07-22T17:07:52.871Z,26.03
2018-07-22T17:10:21.938Z,22.17
2018-07-22T17:12:51.016Z,24.97
2018-07-22T17:15:20.103Z,25.10
2018-07-22T17:17:49.152Z,24.70
2018-07-22T17:20:18.238Z,23.03
2018-07-22T17:22:47.059Z,22.87
2018-07-22T17:25:16.020Z,23.07
2018-07-22T17:27:45.072Z,19.63
2018-07-22T17:30:14.143Z,19.00
2018-07-22T17:32:43.204Z,21.10
2018-07-22T17:35:12.281Z,17.17
2018-07-22T17:37:41.343Z,14.73
2018-07-22T17:40:10.200Z,13.70
2018-07-22T17:42:39.123Z,15.40
2018-07-22T17:45:07.935Z,14.30
2018-07-22T17:47:36.612Z,14.87
2018-07-22T17:50:05.741Z,13.80
2018-07-22T17:52:34.800Z,15.10
2018-07-22T17:55:03.884Z,14.73
2018-07-22T17:57:32.972Z,16.63
2018-07-22T18:00:02.016Z,16.43
2018-07-22T18:02:31.063Z,17.30
2018-07-22T18:04:59.897Z,20.23
2018-07-22T18:07:28.948Z,16.23
2018-07-22T18:09:58.064Z,16.13
2018-07-22T18:12:27.151Z,140.97
2018-07-22T18:14:56.679Z,23.60
2018-07-22T18:17:25.427Z,22.47
2018-07-22T18:19:54.368Z,23.10
2018-07-22T18:22:23.452Z,23.40
2018-07-22T18:24:52.531Z,209.47
2018-07-22T18:27:21.375Z,175.43
2018-07-22T18:29:50.316Z,176.63
2018-07-22T18:32:19.155Z,249.03
2018-07-22T18:34:48.104Z,121.83
2018-07-22T18:37:17.249Z,42.93
2018-07-22T18:39:46.272Z,18.60
2018-07-22T18:42:15.343Z,62.90
2018-07-22T18:44:47.427Z,75.80
2018-07-22T18:47:16.573Z,28.97
2018-07-22T18:49:45.673Z,22.10
2018-07-22T18:52:14.756Z,22.80
2018-07-22T18:54:44.713Z,22.10
2018-07-22T18:57:13.672Z,23.20
2018-07-22T18:59:42.781Z,25.07
2018-07-22T19:02:11.583Z,22.70
2018-07-22T19:04:40.783Z,22.20
2018-07-22T19:07:09.881Z,23.43
2018-07-22T19:09:38.939Z,21.57
2018-07-22T19:12:08.101Z,23.50
2018-07-22T19:14:37.220Z,22.77
2018-07-22T19:17:06.288Z,23.23
2018-07-22T19:19:35.362Z,22.10
2018-07-22T19:22:04.447Z,21.93
2018-07-22T19:24:33.516Z,25.43
2018-07-22T19:27:02.340Z,25.17
2018-07-22T19:29:31.265Z,26.27
2018-07-22T19:32:00.341Z,26.67
2018-07-22T19:34:29.387Z,25.87
2018-07-22T19:36:58.455Z,25.27
2018-07-22T19:39:27.515Z,27.03
2018-07-22T19:41:56.591Z,27.83
2018-07-22T19:44:25.664Z,28.07
2018-07-22T19:46:54.495Z,26.93
2018-07-22T19:49:23.187Z,26.67
2018-07-22T19:51:51.885Z,27.97
2018-07-22T19:54:20.831Z,27.77
2018-07-22T19:56:49.679Z,26.13
2018-07-22T19:59:18.626Z,28.63
2018-07-22T20:01:47.672Z,71.17
2018-07-22T20:04:16.735Z,36.07
2018-07-22T20:06:45.802Z,28.03
2018-07-22T20:09:14.916Z,27.83
2018-07-22T20:11:44.244Z,26.43
2018-07-22T20:14:13.315Z,27.47
2018-07-22T20:16:42.381Z,31.90
2018-07-22T20:19:11.456Z,31.83
2018-07-22T20:21:40.519Z,31.17
2018-07-22T20:24:09.672Z,30.93
2018-07-22T20:26:38.697Z,31.57
2018-07-22T20:29:07.786Z,32.53
2018-07-22T20:31:36.593Z,33.80
2018-07-22T20:34:05.572Z,36.10
2018-07-22T20:36:34.636Z,34.30
2018-07-22T20:39:05.761Z,32.80
2018-07-22T20:41:34.895Z,36.37
2018-07-22T20:44:03.756Z,34.83
2018-07-22T20:46:32.688Z,34.97
2018-07-22T20:49:01.519Z,35.27
2018-07-22T20:51:30.554Z,34.13
2018-07-22T20:53:59.631Z,33.00
2018-07-22T20:56:28.696Z,36.17
2018-07-22T20:58:58.016Z,34.53
2018-07-22T21:01:27.084Z,35.67
2018-07-22T21:03:56.164Z,38.83
2018-07-22T21:06:25.262Z,37.70
2018-07-22T21:08:54.274Z,40.27
2018-07-22T21:11:23.203Z,43.10
2018-07-22T21:13:52.300Z,42.93
2018-07-22T21:16:21.357Z,45.03
2018-07-22T21:18:50.428Z,42.83
2018-07-22T21:21:19.249Z,43.23
2018-07-22T21:23:48.167Z,46.70
2018-07-22T21:26:17.240Z,48.47
2018-07-22T21:28:46.281Z,53.63
2018-07-22T21:31:15.361Z,55.73
2018-07-22T21:33:44.420Z,54.57
2018-07-22T21:36:13.491Z,48.20
2018-07-22T21:38:42.303Z,49.40
2018-07-22T21:41:11.138Z,51.87
2018-07-22T21:43:40.064Z,51.63
2018-07-22T21:46:09.127Z,52.07
2018-07-22T21:48:38.176Z,57.90
2018-07-22T21:51:07.247Z,56.33
2018-07-22T21:53:36.292Z,51.37
2018-07-22T21:56:05.359Z,51.30
2018-07-22T21:58:34.403Z,48.67
2018-07-22T22:01:03.474Z,52.57
2018-07-22T22:03:32.516Z,47.80
2018-07-22T22:06:01.584Z,58.30
2018-07-22T22:08:30.644Z,55.60
2018-07-22T22:10:59.700Z,59.47
2018-07-22T22:13:28.780Z,66.20
2018-07-22T22:15:57.865Z,60.50
2018-07-22T22:18:26.915Z,57.83
2018-07-22T22:20:55.997Z,53.53
2018-07-22T22:26:22.476Z,55.37
2018-07-22T22:28:51.523Z,58.47
2018-07-22T22:31:20.594Z,63.93
2018-07-22T22:33:49.655Z,68.80
2018-07-22T22:36:18.718Z,63.87
2018-07-22T22:38:47.770Z,61.33
2018-07-22T22:41:16.859Z,72.63
2018-07-22T22:43:46.076Z,74.30
2018-07-22T22:46:15.147Z,67.23
2018-07-22T22:48:44.203Z,60.73
2018-07-22T22:51:13.271Z,62.80
2018-07-22T22:53:42.355Z,63.20
2018-07-22T22:56:11.563Z,68.60
2018-07-22T22:58:52.041Z,78.07
2018-07-22T23:01:21.120Z,68.87
2018-07-22T23:03:50.162Z,67.83
2018-07-22T23:06:18.990Z,64.10
2018-07-22T23:08:47.924Z,53.93
2018-07-22T23:11:16.979Z,67.63
2018-07-22T23:13:46.076Z,61.17
2018-07-22T23:16:15.115Z,58.00
2018-07-22T23:18:44.188Z,53.07
2018-07-22T23:21:13.472Z,54.90
2018-07-22T23:23:42.692Z,60.33
2018-07-22T23:26:11.771Z,71.23
2018-07-22T23:28:40.834Z,60.63
2018-07-22T23:31:09.879Z,57.80
2018-07-22T23:33:38.942Z,62.90
2018-07-22T23:36:08.004Z,64.33
2018-07-22T23:38:37.072Z,74.40
2018-07-22T23:41:06.342Z,255.93
2018-07-22T23:43:35.423Z,124.80
2018-07-22T23:46:04.719Z,69.57
2018-07-22T23:48:33.963Z,68.17
2018-07-22T23:51:03.011Z,62.27
2018-07-22T23:53:32.080Z,66.93
2018-07-22T23:56:01.148Z,57.30
2018-07-22T23:58:30.556Z,56.13
